sensor_id;sensor_type;location;lat;lon;timestamp;P1;durP1;ratioP1;P2;durP2;ratioP2
61673;SDS011;47573;43.832;5.974;2023-04-02T00:00:35;271.77;;;182.63;;
61673;SDS011;47573;43.832;5.974;2023-04-02T00:07:37;265.27;;;180.27;;
61673;SDS011;47573;43.832;5.974;2023-04-02T00:14:20;255.57;;;174.50;;
61673;SDS011;47573;43.832;5.974;2023-04-02T00:21:06;260.58;;;176.13;;
61673;SDS011;47573;43.832;5.974;2023-04-02T00:27:52;251.80;;;169.32;;
61673;SDS011;47573;43.832;5.974;2023-04-02T00:34:35;248.57;;;163.97;;
61673;SDS011;47573;43.832;5.974;2023-04-02T00:41:18;244.13;;;159.27;;
61673;SDS011;47573;43.832;5.974;2023-04-02T00:48:14;240.93;;;158.63;;
61673;SDS011;47573;43.832;5.974;2023-04-02T00:55:03;236.60;;;152.95;;
61673;SDS011;47573;43.832;5.974;2023-04-02T01:01:50;227.25;;;151.13;;
61673;SDS011;47573;43.832;5.974;2023-04-02T01:08:41;223.50;;;145.48;;
61673;SDS011;47573;43.832;5.974;2023-04-02T01:15:31;210.80;;;140.65;;
61673;SDS011;47573;43.832;5.974;2023-04-02T01:22:17;205.50;;;136.85;;
61673;SDS011;47573;43.832;5.974;2023-04-02T01:29:04;203.43;;;134.25;;
61673;SDS011;47573;43.832;5.974;2023-04-02T01:35:48;197.65;;;130.50;;
61673;SDS011;47573;43.832;5.974;2023-04-02T01:42:35;186.90;;;122.60;;
61673;SDS011;47573;43.832;5.974;2023-04-02T01:49:22;168.98;;;113.63;;
61673;SDS011;47573;43.832;5.974;2023-04-02T01:56:03;167.05;;;109.57;;
61673;SDS011;47573;43.832;5.974;2023-04-02T02:02:45;158.38;;;105.45;;
61673;SDS011;47573;43.832;5.974;2023-04-02T02:09:29;156.88;;;103.68;;
61673;SDS011;47573;43.832;5.974;2023-04-02T02:16:14;151.73;;;100.80;;
61673;SDS011;47573;43.832;5.974;2023-04-02T02:22:56;144.77;;;95.57;;
61673;SDS011;47573;43.832;5.974;2023-04-02T02:29:39;149.20;;;95.82;;
61673;SDS011;47573;43.832;5.974;2023-04-02T02:36:23;141.68;;;93.60;;
61673;SDS011;47573;43.832;5.974;2023-04-02T02:43:07;136.02;;;89.57;;
61673;SDS011;47573;43.832;5.974;2023-04-02T02:49:53;137.85;;;88.65;;
61673;SDS011;47573;43.832;5.974;2023-04-02T02:56:37;132.32;;;88.15;;
61673;SDS011;47573;43.832;5.974;2023-04-02T03:03:26;131.68;;;85.93;;
61673;SDS011;47573;43.832;5.974;2023-04-02T03:10:12;127.30;;;85.47;;
61673;SDS011;47573;43.832;5.974;2023-04-02T03:16:57;123.50;;;81.60;;
61673;SDS011;47573;43.832;5.974;2023-04-02T03:23:44;116.85;;;74.90;;
61673;SDS011;47573;43.832;5.974;2023-04-02T03:30:30;115.25;;;75.90;;
61673;SDS011;47573;43.832;5.974;2023-04-02T03:37:18;109.70;;;72.75;;
61673;SDS011;47573;43.832;5.974;2023-04-02T03:44:02;109.53;;;69.85;;
61673;SDS011;47573;43.832;5.974;2023-04-02T03:50:53;103.97;;;67.82;;
61673;SDS011;47573;43.832;5.974;2023-04-02T03:57:39;102.88;;;66.03;;
61673;SDS011;47573;43.832;5.974;2023-04-02T04:04:26;99.45;;;62.58;;
61673;SDS011;47573;43.832;5.974;2023-04-02T04:17:54;84.43;;;54.35;;
61673;SDS011;47573;43.832;5.974;2023-04-02T04:24:40;84.72;;;53.97;;
61673;SDS011;47573;43.832;5.974;2023-04-02T04:31:23;77.23;;;50.43;;
61673;SDS011;47573;43.832;5.974;2023-04-02T04:38:10;72.80;;;48.25;;
61673;SDS011;47573;43.832;5.974;2023-04-02T04:44:55;71.25;;;46.63;;
61673;SDS011;47573;43.832;5.974;2023-04-02T04:51:42;65.70;;;42.20;;
61673;SDS011;47573;43.832;5.974;2023-04-02T04:58:28;64.07;;;43.00;;
61673;SDS011;47573;43.832;5.974;2023-04-02T05:05:15;61.88;;;40.80;;
61673;SDS011;47573;43.832;5.974;2023-04-02T05:12:02;62.60;;;41.05;;
61673;SDS011;47573;43.832;5.974;2023-04-02T05:18:51;61.28;;;39.95;;
61673;SDS011;47573;43.832;5.974;2023-04-02T05:25:48;60.03;;;39.03;;
61673;SDS011;47573;43.832;5.974;2023-04-02T05:32:33;53.87;;;36.97;;
61673;SDS011;47573;43.832;5.974;2023-04-02T05:39:19;53.50;;;36.03;;
61673;SDS011;47573;43.832;5.974;2023-04-02T05:46:02;50.55;;;33.55;;
61673;SDS011;47573;43.832;5.974;2023-04-02T05:52:54;49.92;;;33.05;;
61673;SDS011;47573;43.832;5.974;2023-04-02T05:59:38;47.45;;;32.58;;
61673;SDS011;47573;43.832;5.974;2023-04-02T06:06:25;45.78;;;30.55;;
61673;SDS011;47573;43.832;5.974;2023-04-02T06:13:16;44.10;;;30.23;;
61673;SDS011;47573;43.832;5.974;2023-04-02T06:19:58;42.63;;;28.55;;
61673;SDS011;47573;43.832;5.974;2023-04-02T06:33:25;157.85;;;50.28;;
61673;SDS011;47573;43.832;5.974;2023-04-02T06:40:13;46.35;;;27.35;;
61673;SDS011;47573;43.832;5.974;2023-04-02T06:47:05;534.80;;;168.73;;
61673;SDS011;47573;43.832;5.974;2023-04-02T06:53:57;227.80;;;59.45;;
61673;SDS011;47573;43.832;5.974;2023-04-02T07:00:38;72.68;;;31.15;;
61673;SDS011;47573;43.832;5.974;2023-04-02T07:07:20;67.57;;;29.45;;
61673;SDS011;47573;43.832;5.974;2023-04-02T07:14:02;180.00;;;50.37;;
61673;SDS011;47573;43.832;5.974;2023-04-02T07:20:43;64.57;;;27.40;;
61673;SDS011;47573;43.832;5.974;2023-04-02T07:27:23;43.08;;;22.92;;
61673;SDS011;47573;43.832;5.974;2023-04-02T07:34:06;371.45;;;124.07;;
61673;SDS011;47573;43.832;5.974;2023-04-02T07:40:47;104.25;;;33.80;;
61673;SDS011;47573;43.832;5.974;2023-04-02T07:47:28;36.60;;;19.67;;
61673;SDS011;47573;43.832;5.974;2023-04-02T07:54:10;27.23;;;17.70;;
61673;SDS011;47573;43.832;5.974;2023-04-02T08:00:50;22.88;;;15.98;;
61673;SDS011;47573;43.832;5.974;2023-04-02T08:07:31;24.05;;;16.25;;
61673;SDS011;47573;43.832;5.974;2023-04-02T08:14:13;23.20;;;15.93;;
61673;SDS011;47573;43.832;5.974;2023-04-02T08:20:53;22.08;;;15.88;;
61673;SDS011;47573;43.832;5.974;2023-04-02T08:27:34;22.33;;;15.77;;
61673;SDS011;47573;43.832;5.974;2023-04-02T08:34:16;20.83;;;14.30;;
61673;SDS011;47573;43.832;5.974;2023-04-02T08:40:57;19.75;;;13.60;;
61673;SDS011;47573;43.832;5.974;2023-04-02T08:47:40;20.88;;;13.88;;
61673;SDS011;47573;43.832;5.974;2023-04-02T08:54:24;17.88;;;13.05;;
61673;SDS011;47573;43.832;5.974;2023-04-02T09:01:09;18.05;;;12.90;;
61673;SDS011;47573;43.832;5.974;2023-04-02T09:07:59;18.55;;;13.02;;
61673;SDS011;47573;43.832;5.974;2023-04-02T09:14:44;17.33;;;12.43;;
61673;SDS011;47573;43.832;5.974;2023-04-02T09:21:30;15.25;;;11.48;;
61673;SDS011;47573;43.832;5.974;2023-04-02T09:28:14;15.85;;;11.60;;
61673;SDS011;47573;43.832;5.974;2023-04-02T09:35:10;15.32;;;11.48;;
61673;SDS011;47573;43.832;5.974;2023-04-02T09:41:52;15.90;;;11.50;;
61673;SDS011;47573;43.832;5.974;2023-04-02T09:48:42;17.92;;;11.82;;
61673;SDS011;47573;43.832;5.974;2023-04-02T09:55:25;15.82;;;11.50;;
61673;SDS011;47573;43.832;5.974;2023-04-02T10:02:22;15.68;;;11.20;;
61673;SDS011;47573;43.832;5.974;2023-04-02T10:09:18;16.27;;;11.27;;
61673;SDS011;47573;43.832;5.974;2023-04-02T10:16:08;20.17;;;11.70;;
61673;SDS011;47573;43.832;5.974;2023-04-02T10:22:53;16.95;;;11.30;;
61673;SDS011;47573;43.832;5.974;2023-04-02T10:29:37;17.38;;;11.52;;
61673;SDS011;47573;43.832;5.974;2023-04-02T10:36:31;412.27;;;102.70;;
61673;SDS011;47573;43.832;5.974;2023-04-02T10:43:29;20.35;;;12.27;;
61673;SDS011;47573;43.832;5.974;2023-04-02T10:50:22;17.38;;;11.98;;
61673;SDS011;47573;43.832;5.974;2023-04-02T10:57:13;19.27;;;12.40;;
61673;SDS011;47573;43.832;5.974;2023-04-02T11:04:12;16.73;;;11.10;;
61673;SDS011;47573;43.832;5.974;2023-04-02T11:10:59;18.52;;;11.63;;
61673;SDS011;47573;43.832;5.974;2023-04-02T11:17:44;25.13;;;13.15;;
61673;SDS011;47573;43.832;5.974;2023-04-02T11:24:36;16.95;;;11.55;;
61673;SDS011;47573;43.832;5.974;2023-04-02T11:31:21;14.55;;;11.15;;
61673;SDS011;47573;43.832;5.974;2023-04-02T11:38:46;16.05;;;11.23;;
61673;SDS011;47573;43.832;5.974;2023-04-02T11:52:35;14.90;;;11.40;;
61673;SDS011;47573;43.832;5.974;2023-04-02T11:59:30;14.80;;;11.50;;
61673;SDS011;47573;43.832;5.974;2023-04-02T12:06:18;12.68;;;10.13;;
61673;SDS011;47573;43.832;5.974;2023-04-02T12:13:16;13.93;;;10.25;;
61673;SDS011;47573;43.832;5.974;2023-04-02T12:19:59;15.38;;;11.23;;
61673;SDS011;47573;43.832;5.974;2023-04-02T12:26:43;33.28;;;14.55;;
61673;SDS011;47573;43.832;5.974;2023-04-02T12:33:27;14.83;;;10.87;;
61673;SDS011;47573;43.832;5.974;2023-04-02T12:40:15;13.20;;;10.48;;
61673;SDS011;47573;43.832;5.974;2023-04-02T12:46:56;240.75;;;59.00;;
61673;SDS011;47573;43.832;5.974;2023-04-02T12:53:39;14.63;;;10.70;;
61673;SDS011;47573;43.832;5.974;2023-04-02T13:00:34;12.87;;;10.33;;
61673;SDS011;47573;43.832;5.974;2023-04-02T13:07:15;14.80;;;11.13;;
61673;SDS011;47573;43.832;5.974;2023-04-02T13:13:59;369.88;;;100.57;;
61673;SDS011;47573;43.832;5.974;2023-04-02T13:27:33;12.80;;;10.40;;
61673;SDS011;47573;43.832;5.974;2023-04-02T13:34:13;1306.57;;;436.70;;
61673;SDS011;47573;43.832;5.974;2023-04-02T13:40:55;18.70;;;13.43;;
61673;SDS011;47573;43.832;5.974;2023-04-02T13:47:36;34.40;;;22.95;;
61673;SDS011;47573;43.832;5.974;2023-04-02T13:54:18;31.73;;;22.93;;
61673;SDS011;47573;43.832;5.974;2023-04-02T14:01:04;91.45;;;38.10;;
61673;SDS011;47573;43.832;5.974;2023-04-02T14:07:47;32.10;;;22.10;;
61673;SDS011;47573;43.832;5.974;2023-04-02T14:14:39;32.58;;;22.17;;
61673;SDS011;47573;43.832;5.974;2023-04-02T14:21:39;32.40;;;21.92;;
61673;SDS011;47573;43.832;5.974;2023-04-02T14:28:28;28.50;;;20.57;;
61673;SDS011;47573;43.832;5.974;2023-04-02T14:35:15;550.33;;;223.50;;
61673;SDS011;47573;43.832;5.974;2023-04-02T14:42:02;30.38;;;21.23;;
61673;SDS011;47573;43.832;5.974;2023-04-02T14:48:50;26.00;;;19.65;;
61673;SDS011;47573;43.832;5.974;2023-04-02T14:55:33;24.35;;;18.60;;
61673;SDS011;47573;43.832;5.974;2023-04-02T15:02:19;27.38;;;18.67;;
61673;SDS011;47573;43.832;5.974;2023-04-02T15:09:09;26.98;;;17.88;;
61673;SDS011;47573;43.832;5.974;2023-04-02T15:15:57;27.20;;;19.38;;
61673;SDS011;47573;43.832;5.974;2023-04-02T15:22:53;25.70;;;19.95;;
61673;SDS011;47573;43.832;5.974;2023-04-02T15:29:41;24.27;;;19.13;;
61673;SDS011;47573;43.832;5.974;2023-04-02T15:43:37;33.15;;;25.67;;
61673;SDS011;47573;43.832;5.974;2023-04-02T15:50:29;41.30;;;28.38;;
61673;SDS011;47573;43.832;5.974;2023-04-02T15:57:23;48.95;;;34.00;;
61673;SDS011;47573;43.832;5.974;2023-04-02T16:04:21;53.15;;;34.90;;
61673;SDS011;47573;43.832;5.974;2023-04-02T16:11:15;63.63;;;41.10;;
61673;SDS011;47573;43.832;5.974;2023-04-02T16:17:57;75.83;;;48.50;;
61673;SDS011;47573;43.832;5.974;2023-04-02T16:24:43;98.22;;;58.88;;
61673;SDS011;47573;43.832;5.974;2023-04-02T16:31:29;114.88;;;66.65;;
61673;SDS011;47573;43.832;5.974;2023-04-02T16:38:32;143.80;;;87.05;;
61673;SDS011;47573;43.832;5.974;2023-04-02T16:45:25;152.55;;;98.55;;
61673;SDS011;47573;43.832;5.974;2023-04-02T16:52:18;205.68;;;121.93;;
61673;SDS011;47573;43.832;5.974;2023-04-02T16:59:12;201.80;;;126.10;;
61673;SDS011;47573;43.832;5.974;2023-04-02T17:06:02;208.38;;;126.60;;
61673;SDS011;47573;43.832;5.974;2023-04-02T17:12:45;223.05;;;127.53;;
61673;SDS011;47573;43.832;5.974;2023-04-02T17:19:28;228.27;;;136.65;;
61673;SDS011;47573;43.832;5.974;2023-04-02T17:26:11;236.43;;;140.90;;
61673;SDS011;47573;43.832;5.974;2023-04-02T17:32:52;251.15;;;151.10;;
61673;SDS011;47573;43.832;5.974;2023-04-02T17:39:35;263.53;;;165.40;;
61673;SDS011;47573;43.832;5.974;2023-04-02T17:46:24;261.45;;;166.32;;
61673;SDS011;47573;43.832;5.974;2023-04-02T17:53:14;260.20;;;162.38;;
61673;SDS011;47573;43.832;5.974;2023-04-02T18:00:06;433.10;;;242.60;;
61673;SDS011;47573;43.832;5.974;2023-04-02T18:07:06;280.83;;;184.27;;
61673;SDS011;47573;43.832;5.974;2023-04-02T18:14:02;288.88;;;186.70;;
61673;SDS011;47573;43.832;5.974;2023-04-02T18:20:52;319.00;;;212.00;;
61673;SDS011;47573;43.832;5.974;2023-04-02T18:27:51;318.67;;;215.55;;
61673;SDS011;47573;43.832;5.974;2023-04-02T18:34:48;309.13;;;210.07;;
61673;SDS011;47573;43.832;5.974;2023-04-02T18:41:42;345.77;;;216.20;;
61673;SDS011;47573;43.832;5.974;2023-04-02T18:48:33;331.00;;;215.68;;
61673;SDS011;47573;43.832;5.974;2023-04-02T18:55:23;287.52;;;191.40;;
61673;SDS011;47573;43.832;5.974;2023-04-02T19:02:12;282.23;;;188.98;;
61673;SDS011;47573;43.832;5.974;2023-04-02T19:09:09;293.52;;;195.75;;
61673;SDS011;47573;43.832;5.974;2023-04-02T19:15:57;294.40;;;200.52;;
61673;SDS011;47573;43.832;5.974;2023-04-02T19:22:46;317.48;;;216.23;;
61673;SDS011;47573;43.832;5.974;2023-04-02T19:29:40;471.60;;;248.85;;
61673;SDS011;47573;43.832;5.974;2023-04-02T19:36:38;308.67;;;187.38;;
61673;SDS011;47573;43.832;5.974;2023-04-02T19:43:23;275.88;;;173.60;;
61673;SDS011;47573;43.832;5.974;2023-04-02T19:50:05;303.70;;;196.17;;
61673;SDS011;47573;43.832;5.974;2023-04-02T19:56:47;282.58;;;181.32;;
61673;SDS011;47573;43.832;5.974;2023-04-02T20:03:28;253.05;;;164.30;;
61673;SDS011;47573;43.832;5.974;2023-04-02T20:10:10;262.52;;;165.52;;
61673;SDS011;47573;43.832;5.974;2023-04-02T20:16:50;266.50;;;168.43;;
61673;SDS011;47573;43.832;5.974;2023-04-02T20:23:31;259.47;;;168.27;;
61673;SDS011;47573;43.832;5.974;2023-04-02T20:30:13;261.10;;;164.82;;
61673;SDS011;47573;43.832;5.974;2023-04-02T20:36:54;262.37;;;170.53;;
61673;SDS011;47573;43.832;5.974;2023-04-02T20:43:35;263.67;;;169.43;;
61673;SDS011;47573;43.832;5.974;2023-04-02T20:50:17;255.75;;;166.18;;
61673;SDS011;47573;43.832;5.974;2023-04-02T20:56:58;273.90;;;180.43;;
61673;SDS011;47573;43.832;5.974;2023-04-02T21:03:39;270.27;;;176.38;;
61673;SDS011;47573;43.832;5.974;2023-04-02T21:10:20;264.97;;;168.30;;
61673;SDS011;47573;43.832;5.974;2023-04-02T21:17:01;249.13;;;161.27;;
61673;SDS011;47573;43.832;5.974;2023-04-02T21:23:42;239.45;;;151.65;;
61673;SDS011;47573;43.832;5.974;2023-04-02T21:30:25;266.35;;;174.02;;
61673;SDS011;47573;43.832;5.974;2023-04-02T21:37:05;254.32;;;166.77;;
61673;SDS011;47573;43.832;5.974;2023-04-02T21:43:46;293.17;;;200.15;;
61673;SDS011;47573;43.832;5.974;2023-04-02T21:50:28;294.58;;;203.13;;
61673;SDS011;47573;43.832;5.974;2023-04-02T21:57:09;288.87;;;200.27;;
61673;SDS011;47573;43.832;5.974;2023-04-02T22:03:49;278.88;;;190.95;;
61673;SDS011;47573;43.832;5.974;2023-04-02T22:10:31;280.20;;;189.60;;
61673;SDS011;47573;43.832;5.974;2023-04-02T22:17:14;282.52;;;196.60;;
61673;SDS011;47573;43.832;5.974;2023-04-02T22:23:54;277.30;;;185.73;;
61673;SDS011;47573;43.832;5.974;2023-04-02T22:30:36;283.38;;;192.95;;
61673;SDS011;47573;43.832;5.974;2023-04-02T22:37:17;276.00;;;188.88;;
61673;SDS011;47573;43.832;5.974;2023-04-02T22:43:58;278.70;;;190.40;;
61673;SDS011;47573;43.832;5.974;2023-04-02T22:50:41;291.70;;;201.73;;
61673;SDS011;47573;43.832;5.974;2023-04-02T22:57:21;265.80;;;181.07;;
61673;SDS011;47573;43.832;5.974;2023-04-02T23:04:02;275.70;;;192.17;;
61673;SDS011;47573;43.832;5.974;2023-04-02T23:10:44;292.45;;;199.95;;
61673;SDS011;47573;43.832;5.974;2023-04-02T23:17:24;307.42;;;216.90;;
61673;SDS011;47573;43.832;5.974;2023-04-02T23:24:05;316.30;;;220.97;;
61673;SDS011;47573;43.832;5.974;2023-04-02T23:30:47;319.10;;;223.70;;
61673;SDS011;47573;43.832;5.974;2023-04-02T23:37:27;339.45;;;237.00;;
61673;SDS011;47573;43.832;5.974;2023-04-02T23:44:08;343.83;;;242.40;;
61673;SDS011;47573;43.832;5.974;2023-04-02T23:50:50;348.05;;;246.50;;
61673;SDS011;47573;43.832;5.974;2023-04-02T23:57:31;362.70;;;258.83;;
